sensor_id;sensor_type;location;lat;lon;timestamp;pressure;altitude;pressure_sealevel;temperature;humidity
12759;BME280;20944;47.048;15.390;2023-06-04T00:00:50;97656.91;;;17.34;72.86
12759;BME280;20944;47.048;15.390;2023-06-04T00:03:19;97655.97;;;17.35;72.95
12759;BME280;20944;47.048;15.390;2023-06-04T00:05:47;97650.84;;;17.32;72.85
12759;BME280;20944;47.048;15.390;2023-06-04T00:08:16;97650.94;;;17.30;73.00
12759;BME280;20944;47.048;15.390;2023-06-04T00:10:44;97658.78;;;17.32;73.07
12759;BME280;20944;47.048;15.390;2023-06-04T00:13:12;97657.50;;;17.39;73.51
12759;BME280;20944;47.048;15.390;2023-06-04T00:15:41;97658.22;;;17.42;72.97
12759;BME280;20944;47.048;15.390;2023-06-04T00:18:09;97654.97;;;17.37;73.20
12759;BME280;20944;47.048;15.390;2023-06-04T00:20:41;97636.38;;;17.21;73.42
12759;BME280;20944;47.048;15.390;2023-06-04T00:23:10;97623.41;;;17.17;75.27
12759;BME280;20944;47.048;15.390;2023-06-04T00:25:38;97650.84;;;17.32;77.14
12759;BME280;20944;47.048;15.390;2023-06-04T00:28:06;97650.59;;;17.36;78.19
12759;BME280;20944;47.048;15.390;2023-06-04T00:30:34;97655.47;;;17.44;77.88
12759;BME280;20944;47.048;15.390;2023-06-04T00:33:03;97636.94;;;17.44;77.45
12759;BME280;20944;47.048;15.390;2023-06-04T00:35:32;97647.69;;;17.57;75.72
12759;BME280;20944;47.048;15.390;2023-06-04T00:38:02;97642.84;;;17.49;74.24
12759;BME280;20944;47.048;15.390;2023-06-04T00:40:30;97642.72;;;17.35;76.00
12759;BME280;20944;47.048;15.390;2023-06-04T00:42:58;97640.50;;;17.27;77.02
12759;BME280;20944;47.048;15.390;2023-06-04T00:45:26;97637.31;;;17.20;76.70
12759;BME280;20944;47.048;15.390;2023-06-04T00:47:58;97634.59;;;17.22;77.14
12759;BME280;20944;47.048;15.390;2023-06-04T00:50:26;97635.47;;;17.22;78.74
12759;BME280;20944;47.048;15.390;2023-06-04T00:52:54;97631.53;;;17.30;77.66
12759;BME280;20944;47.048;15.390;2023-06-04T00:55:25;97630.84;;;17.26;77.07
12759;BME280;20944;47.048;15.390;2023-06-04T00:57:54;97639.75;;;17.25;76.89
12759;BME280;20944;47.048;15.390;2023-06-04T01:00:22;97642.44;;;17.08;78.33
12759;BME280;20944;47.048;15.390;2023-06-04T01:02:52;97635.63;;;17.04;80.03
12759;BME280;20944;47.048;15.390;2023-06-04T01:05:27;97631.00;;;17.07;80.44
12759;BME280;20944;47.048;15.390;2023-06-04T01:08:01;97631.75;;;17.09;79.65
12759;BME280;20944;47.048;15.390;2023-06-04T01:10:31;97619.91;;;17.16;80.31
12759;BME280;20944;47.048;15.390;2023-06-04T01:12:59;97620.59;;;17.20;78.99
12759;BME280;20944;47.048;15.390;2023-06-04T01:15:27;97618.94;;;17.02;79.37
12759;BME280;20944;47.048;15.390;2023-06-04T01:17:58;97625.06;;;17.02;80.45
12759;BME280;20944;47.048;15.390;2023-06-04T01:20:35;97630.50;;;17.16;80.01
12759;BME280;20944;47.048;15.390;2023-06-04T01:23:29;97626.06;;;17.17;80.09
12759;BME280;20944;47.048;15.390;2023-06-04T01:26:03;97625.88;;;17.04;81.10
12759;BME280;20944;47.048;15.390;2023-06-04T01:28:34;97594.47;;;16.81;81.08
12759;BME280;20944;47.048;15.390;2023-06-04T01:31:03;97625.16;;;17.01;82.72
12759;BME280;20944;47.048;15.390;2023-06-04T01:33:35;97619.53;;;16.91;81.60
12759;BME280;20944;47.048;15.390;2023-06-04T01:36:04;97626.25;;;16.96;80.55
12759;BME280;20944;47.048;15.390;2023-06-04T01:38:33;97623.09;;;16.90;80.26
12759;BME280;20944;47.048;15.390;2023-06-04T01:41:03;97633.63;;;16.91;80.76
12759;BME280;20944;47.048;15.390;2023-06-04T01:43:31;97627.00;;;16.83;82.15
12759;BME280;20944;47.048;15.390;2023-06-04T01:46:02;97621.63;;;16.84;81.50
12759;BME280;20944;47.048;15.390;2023-06-04T01:48:30;97626.53;;;16.92;80.65
12759;BME280;20944;47.048;15.390;2023-06-04T01:50:59;97628.75;;;16.99;80.57
12759;BME280;20944;47.048;15.390;2023-06-04T01:53:29;97627.91;;;16.99;79.60
12759;BME280;20944;47.048;15.390;2023-06-04T01:55:57;97629.44;;;17.03;79.75
12759;BME280;20944;47.048;15.390;2023-06-04T01:58:27;97625.88;;;17.04;80.31
12759;BME280;20944;47.048;15.390;2023-06-04T02:00:56;97602.53;;;16.95;81.97
12759;BME280;20944;47.048;15.390;2023-06-04T02:03:27;97601.25;;;17.02;80.23
12759;BME280;20944;47.048;15.390;2023-06-04T02:05:59;97603.03;;;17.02;81.92
12759;BME280;20944;47.048;15.390;2023-06-04T02:08:27;97620.78;;;17.17;81.24
12759;BME280;20944;47.048;15.390;2023-06-04T02:10:57;97611.28;;;17.13;80.33
12759;BME280;20944;47.048;15.390;2023-06-04T02:13:26;97622.19;;;17.07;80.04
12759;BME280;20944;47.048;15.390;2023-06-04T02:15:54;97619.53;;;17.07;80.27
12759;BME280;20944;47.048;15.390;2023-06-04T02:18:23;97621.34;;;17.06;79.70
12759;BME280;20944;47.048;15.390;2023-06-04T02:20:51;97625.78;;;17.06;79.69
12759;BME280;20944;47.048;15.390;2023-06-04T02:23:19;97621.47;;;16.87;79.73
12759;BME280;20944;47.048;15.390;2023-06-04T02:25:48;97619.69;;;16.88;80.41
12759;BME280;20944;47.048;15.390;2023-06-04T02:28:17;97558.78;;;16.55;79.77
12759;BME280;20944;47.048;15.390;2023-06-04T02:30:47;97611.41;;;16.94;79.61
12759;BME280;20944;47.048;15.390;2023-06-04T02:33:15;97612.16;;;16.96;79.96
12759;BME280;20944;47.048;15.390;2023-06-04T02:35:43;97616.47;;;16.98;80.49
12759;BME280;20944;47.048;15.390;2023-06-04T02:38:11;97610.38;;;16.96;80.48
12759;BME280;20944;47.048;15.390;2023-06-04T02:40:40;97611.22;;;16.97;80.02
12759;BME280;20944;47.048;15.390;2023-06-04T02:43:08;97614.16;;;16.92;79.76
12759;BME280;20944;47.048;15.390;2023-06-04T02:45:36;97607.47;;;16.85;80.05
12759;BME280;20944;47.048;15.390;2023-06-04T02:48:06;97610.69;;;16.90;79.62
12759;BME280;20944;47.048;15.390;2023-06-04T02:50:34;97624.88;;;16.89;79.46
12759;BME280;20944;47.048;15.390;2023-06-04T02:53:02;97610.25;;;16.82;80.33
12759;BME280;20944;47.048;15.390;2023-06-04T02:55:30;97619.84;;;16.85;80.52
12759;BME280;20944;47.048;15.390;2023-06-04T02:57:59;97621.19;;;16.76;81.73
12759;BME280;20944;47.048;15.390;2023-06-04T03:00:27;97612.38;;;16.76;83.13
12759;BME280;20944;47.048;15.390;2023-06-04T03:02:55;97614.63;;;16.83;81.95
12759;BME280;20944;47.048;15.390;2023-06-04T03:05:30;97611.13;;;16.83;80.92
12759;BME280;20944;47.048;15.390;2023-06-04T03:08:01;97611.91;;;16.67;82.30
12759;BME280;20944;47.048;15.390;2023-06-04T03:10:31;97599.56;;;16.51;81.97
12759;BME280;20944;47.048;15.390;2023-06-04T03:12:59;97608.97;;;16.56;82.93
12759;BME280;20944;47.048;15.390;2023-06-04T03:15:27;97606.63;;;16.50;83.89
12759;BME280;20944;47.048;15.390;2023-06-04T03:17:56;97620.84;;;16.65;81.80
12759;BME280;20944;47.048;15.390;2023-06-04T03:20:25;97617.66;;;16.58;82.70
12759;BME280;20944;47.048;15.390;2023-06-04T03:22:54;97628.13;;;16.44;81.37
12759;BME280;20944;47.048;15.390;2023-06-04T03:25:22;97622.69;;;16.30;82.78
12759;BME280;20944;47.048;15.390;2023-06-04T03:27:51;97624.31;;;16.32;84.25
12759;BME280;20944;47.048;15.390;2023-06-04T03:30:19;97619.72;;;16.36;84.33
12759;BME280;20944;47.048;15.390;2023-06-04T03:32:47;97549.81;;;15.89;84.98
12759;BME280;20944;47.048;15.390;2023-06-04T03:35:15;97624.84;;;16.39;85.23
12759;BME280;20944;47.048;15.390;2023-06-04T03:37:43;97621.25;;;16.40;85.24
12759;BME280;20944;47.048;15.390;2023-06-04T03:40:13;97637.75;;;16.45;85.08
12759;BME280;20944;47.048;15.390;2023-06-04T03:42:42;97631.38;;;16.49;84.26
12759;BME280;20944;47.048;15.390;2023-06-04T03:45:10;97635.81;;;16.49;83.75
12759;BME280;20944;47.048;15.390;2023-06-04T03:47:39;97632.59;;;16.59;83.20
12759;BME280;20944;47.048;15.390;2023-06-04T03:50:08;97633.31;;;16.63;82.03
12759;BME280;20944;47.048;15.390;2023-06-04T03:52:36;97636.59;;;16.51;82.76
12759;BME280;20944;47.048;15.390;2023-06-04T03:55:05;97641.97;;;16.49;82.84
12759;BME280;20944;47.048;15.390;2023-06-04T03:57:35;97637.97;;;16.40;83.46
12759;BME280;20944;47.048;15.390;2023-06-04T04:00:06;97646.00;;;16.39;83.74
12759;BME280;20944;47.048;15.390;2023-06-04T04:02:35;97642.06;;;16.48;84.22
12759;BME280;20944;47.048;15.390;2023-06-04T04:05:04;97646.22;;;16.52;84.46
12759;BME280;20944;47.048;15.390;2023-06-04T04:07:32;97647.31;;;16.65;83.43
12759;BME280;20944;47.048;15.390;2023-06-04T04:10:00;97617.84;;;16.55;83.64
12759;BME280;20944;47.048;15.390;2023-06-04T04:12:28;97650.75;;;16.67;84.00
12759;BME280;20944;47.048;15.390;2023-06-04T04:14:58;97644.75;;;16.63;83.69
12759;BME280;20944;47.048;15.390;2023-06-04T04:17:26;97645.50;;;16.65;84.81
12759;BME280;20944;47.048;15.390;2023-06-04T04:19:54;97641.16;;;16.64;86.05
12759;BME280;20944;47.048;15.390;2023-06-04T04:22:23;97657.81;;;16.84;84.95
12759;BME280;20944;47.048;15.390;2023-06-04T04:24:51;97651.75;;;16.82;84.21
12759;BME280;20944;47.048;15.390;2023-06-04T04:27:19;97653.66;;;16.80;85.27
12759;BME280;20944;47.048;15.390;2023-06-04T04:29:47;97657.75;;;16.85;87.07
12759;BME280;20944;47.048;15.390;2023-06-04T04:32:17;97651.53;;;16.86;87.44
12759;BME280;20944;47.048;15.390;2023-06-04T04:34:50;97652.69;;;16.98;85.59
12759;BME280;20944;47.048;15.390;2023-06-04T04:37:19;97654.72;;;16.93;84.44
12759;BME280;20944;47.048;15.390;2023-06-04T04:39:49;97661.72;;;16.94;85.23
12759;BME280;20944;47.048;15.390;2023-06-04T04:42:19;97662.31;;;16.99;84.79
12759;BME280;20944;47.048;15.390;2023-06-04T04:44:47;97658.88;;;16.97;84.40
12759;BME280;20944;47.048;15.390;2023-06-04T04:47:17;97667.28;;;17.05;85.13
12759;BME280;20944;47.048;15.390;2023-06-04T04:49:45;97665.31;;;17.09;85.10
12759;BME280;20944;47.048;15.390;2023-06-04T04:52:16;97657.56;;;17.06;85.76
12759;BME280;20944;47.048;15.390;2023-06-04T04:54:44;97667.59;;;17.16;84.53
12759;BME280;20944;47.048;15.390;2023-06-04T04:57:12;97659.97;;;17.10;85.68
12759;BME280;20944;47.048;15.390;2023-06-04T04:59:41;97655.53;;;17.11;84.07
12759;BME280;20944;47.048;15.390;2023-06-04T05:02:09;97655.97;;;17.19;83.41
12759;BME280;20944;47.048;15.390;2023-06-04T05:04:39;97661.69;;;17.27;82.80
12759;BME280;20944;47.048;15.390;2023-06-04T05:07:07;97664.72;;;17.37;81.86
12759;BME280;20944;47.048;15.390;2023-06-04T05:09:35;97666.22;;;17.41;80.74
12759;BME280;20944;47.048;15.390;2023-06-04T05:12:04;97615.97;;;17.08;80.72
12759;BME280;20944;47.048;15.390;2023-06-04T05:14:32;97664.28;;;17.29;81.17
12759;BME280;20944;47.048;15.390;2023-06-04T05:17:02;97656.91;;;17.18;82.61
12759;BME280;20944;47.048;15.390;2023-06-04T05:19:31;97678.03;;;17.35;83.52
12759;BME280;20944;47.048;15.390;2023-06-04T05:22:01;97667.88;;;17.43;81.88
12759;BME280;20944;47.048;15.390;2023-06-04T05:24:29;97660.44;;;17.50;80.57
12759;BME280;20944;47.048;15.390;2023-06-04T05:26:59;97667.00;;;17.59;80.03
12759;BME280;20944;47.048;15.390;2023-06-04T05:29:28;97669.88;;;17.71;78.37
12759;BME280;20944;47.048;15.390;2023-06-04T05:31:56;97668.00;;;17.73;77.54
12759;BME280;20944;47.048;15.390;2023-06-04T05:34:25;97686.78;;;17.85;77.67
12759;BME280;20944;47.048;15.390;2023-06-04T05:36:53;97685.69;;;17.89;77.64
12759;BME280;20944;47.048;15.390;2023-06-04T05:39:25;97678.59;;;17.89;78.57
12759;BME280;20944;47.048;15.390;2023-06-04T05:41:53;97678.94;;;17.99;78.36
12759;BME280;20944;47.048;15.390;2023-06-04T05:44:22;97687.50;;;18.04;78.99
12759;BME280;20944;47.048;15.390;2023-06-04T05:46:50;97615.91;;;17.57;78.90
12759;BME280;20944;47.048;15.390;2023-06-04T05:49:18;97691.25;;;18.00;78.68
12759;BME280;20944;47.048;15.390;2023-06-04T05:51:46;97676.63;;;17.93;79.17
12759;BME280;20944;47.048;15.390;2023-06-04T05:54:15;97689.44;;;18.00;79.96
12759;BME280;20944;47.048;15.390;2023-06-04T05:56:44;97693.56;;;18.06;78.33
12759;BME280;20944;47.048;15.390;2023-06-04T05:59:12;97679.09;;;18.12;77.29
12759;BME280;20944;47.048;15.390;2023-06-04T06:01:41;97694.31;;;18.24;77.21
12759;BME280;20944;47.048;15.390;2023-06-04T06:04:10;97694.50;;;18.35;76.93
12759;BME280;20944;47.048;15.390;2023-06-04T06:06:39;97702.81;;;18.45;75.79
12759;BME280;20944;47.048;15.390;2023-06-04T06:09:10;97703.41;;;18.50;73.88
12759;BME280;20944;47.048;15.390;2023-06-04T06:11:38;97697.75;;;18.40;74.35
12759;BME280;20944;47.048;15.390;2023-06-04T06:14:08;97701.03;;;18.59;75.58
12759;BME280;20944;47.048;15.390;2023-06-04T06:16:36;97705.69;;;18.56;73.56
12759;BME280;20944;47.048;15.390;2023-06-04T06:19:04;97708.47;;;18.39;74.65
12759;BME280;20944;47.048;15.390;2023-06-04T06:21:33;97710.22;;;18.54;75.61
12759;BME280;20944;47.048;15.390;2023-06-04T06:24:01;97712.63;;;18.58;74.41
12759;BME280;20944;47.048;15.390;2023-06-04T06:26:29;97711.31;;;18.66;75.01
12759;BME280;20944;47.048;15.390;2023-06-04T06:28:58;97709.28;;;18.85;74.67
12759;BME280;20944;47.048;15.390;2023-06-04T06:31:28;97699.25;;;18.76;72.99
12759;BME280;20944;47.048;15.390;2023-06-04T06:33:56;97705.84;;;18.99;72.56
12759;BME280;20944;47.048;15.390;2023-06-04T06:36:25;97660.09;;;18.79;71.87
12759;BME280;20944;47.048;15.390;2023-06-04T06:38:53;97711.06;;;19.29;72.08
12759;BME280;20944;47.048;15.390;2023-06-04T06:41:21;97701.69;;;19.37;70.45
12759;BME280;20944;47.048;15.390;2023-06-04T06:43:50;97711.16;;;19.56;69.59
12759;BME280;20944;47.048;15.390;2023-06-04T06:46:18;97710.31;;;19.70;67.82
12759;BME280;20944;47.048;15.390;2023-06-04T06:48:48;97714.56;;;19.72;67.10
12759;BME280;20944;47.048;15.390;2023-06-04T06:51:16;97724.44;;;19.84;68.18
12759;BME280;20944;47.048;15.390;2023-06-04T06:53:44;97675.47;;;19.74;67.91
12759;BME280;20944;47.048;15.390;2023-06-04T06:56:14;97703.50;;;20.07;66.26
12759;BME280;20944;47.048;15.390;2023-06-04T06:58:42;97718.09;;;20.14;66.83
12759;BME280;20944;47.048;15.390;2023-06-04T07:01:11;97718.28;;;20.25;66.39
12759;BME280;20944;47.048;15.390;2023-06-04T07:03:39;97652.13;;;19.92;65.59
12759;BME280;20944;47.048;15.390;2023-06-04T07:06:09;97717.59;;;20.21;62.90
12759;BME280;20944;47.048;15.390;2023-06-04T07:08:37;97714.84;;;20.23;63.47
12759;BME280;20944;47.048;15.390;2023-06-04T07:11:05;97713.44;;;20.17;63.47
12759;BME280;20944;47.048;15.390;2023-06-04T07:13:34;97702.50;;;20.22;64.03
12759;BME280;20944;47.048;15.390;2023-06-04T07:16:02;97705.00;;;20.11;64.10
12759;BME280;20944;47.048;15.390;2023-06-04T07:18:31;97701.81;;;19.91;63.85
12759;BME280;20944;47.048;15.390;2023-06-04T07:20:59;97708.44;;;19.99;64.52
12759;BME280;20944;47.048;15.390;2023-06-04T07:23:29;97710.13;;;20.14;64.83
12759;BME280;20944;47.048;15.390;2023-06-04T07:25:57;97691.56;;;20.27;64.80
12759;BME280;20944;47.048;15.390;2023-06-04T07:28:25;97709.63;;;20.48;64.03
12759;BME280;20944;47.048;15.390;2023-06-04T07:30:53;97707.34;;;20.57;62.32
12759;BME280;20944;47.048;15.390;2023-06-04T07:33:22;97703.50;;;20.73;62.38
12759;BME280;20944;47.048;15.390;2023-06-04T07:35:51;97707.94;;;20.87;62.54
12759;BME280;20944;47.048;15.390;2023-06-04T07:38:19;97707.28;;;20.84;61.28
12759;BME280;20944;47.048;15.390;2023-06-04T07:40:49;97698.19;;;20.73;60.42
12759;BME280;20944;47.048;15.390;2023-06-04T07:43:18;97704.34;;;20.61;62.07
12759;BME280;20944;47.048;15.390;2023-06-04T07:45:47;97711.09;;;20.80;62.67
12759;BME280;20944;47.048;15.390;2023-06-04T07:48:15;97694.19;;;20.93;61.98
12759;BME280;20944;47.048;15.390;2023-06-04T07:50:43;97670.41;;;21.03;62.89
12759;BME280;20944;47.048;15.390;2023-06-04T07:53:11;97701.88;;;21.36;62.00
12759;BME280;20944;47.048;15.390;2023-06-04T07:55:40;97701.97;;;21.47;60.73
12759;BME280;20944;47.048;15.390;2023-06-04T07:58:09;97705.59;;;21.59;59.44
12759;BME280;20944;47.048;15.390;2023-06-04T08:00:38;97698.84;;;21.66;60.93
12759;BME280;20944;47.048;15.390;2023-06-04T08:03:06;97710.16;;;21.83;60.42
12759;BME280;20944;47.048;15.390;2023-06-04T08:05:34;97708.19;;;21.97;60.32
12759;BME280;20944;47.048;15.390;2023-06-04T08:08:02;97704.94;;;22.18;58.18
12759;BME280;20944;47.048;15.390;2023-06-04T08:10:31;97708.38;;;22.31;57.92
12759;BME280;20944;47.048;15.390;2023-06-04T08:12:59;97716.19;;;22.34;58.60
12759;BME280;20944;47.048;15.390;2023-06-04T08:15:29;97703.63;;;22.23;58.36
12759;BME280;20944;47.048;15.390;2023-06-04T08:17:57;97719.06;;;22.07;57.55
12759;BME280;20944;47.048;15.390;2023-06-04T08:20:25;97708.59;;;22.04;59.15
12759;BME280;20944;47.048;15.390;2023-06-04T08:22:54;97711.75;;;22.22;58.85
12759;BME280;20944;47.048;15.390;2023-06-04T08:25:22;97724.47;;;22.42;57.75
12759;BME280;20944;47.048;15.390;2023-06-04T08:27:50;97717.63;;;22.51;58.42
12759;BME280;20944;47.048;15.390;2023-06-04T08:30:19;97716.91;;;22.60;57.84
12759;BME280;20944;47.048;15.390;2023-06-04T08:32:49;97723.91;;;22.50;56.08
12759;BME280;20944;47.048;15.390;2023-06-04T08:35:17;97705.72;;;22.31;56.28
12759;BME280;20944;47.048;15.390;2023-06-04T08:37:45;97715.22;;;22.35;57.72
12759;BME280;20944;47.048;15.390;2023-06-04T08:40:14;97711.69;;;22.34;56.08
12759;BME280;20944;47.048;15.390;2023-06-04T08:42:43;97716.31;;;22.32;57.05
12759;BME280;20944;47.048;15.390;2023-06-04T08:45:13;97711.50;;;22.25;55.34
12759;BME280;20944;47.048;15.390;2023-06-04T08:47:44;97717.22;;;22.07;55.57
12759;BME280;20944;47.048;15.390;2023-06-04T08:50:19;97635.03;;;21.76;55.56
12759;BME280;20944;47.048;15.390;2023-06-04T08:52:49;97717.94;;;22.46;55.77
12759;BME280;20944;47.048;15.390;2023-06-04T08:55:17;97723.50;;;22.67;57.50
12759;BME280;20944;47.048;15.390;2023-06-04T08:57:47;97719.25;;;22.88;56.17
12759;BME280;20944;47.048;15.390;2023-06-04T09:00:17;97708.38;;;23.14;57.17
12759;BME280;20944;47.048;15.390;2023-06-04T09:02:47;97709.50;;;23.34;55.21
12759;BME280;20944;47.048;15.390;2023-06-04T09:05:19;97699.66;;;23.46;55.06
12759;BME280;20944;47.048;15.390;2023-06-04T09:07:52;97709.25;;;23.48;54.49
12759;BME280;20944;47.048;15.390;2023-06-04T09:10:22;97709.47;;;23.56;55.45
12759;BME280;20944;47.048;15.390;2023-06-04T09:12:52;97707.47;;;23.71;55.28
12759;BME280;20944;47.048;15.390;2023-06-04T09:15:20;97709.66;;;23.77;53.87
12759;BME280;20944;47.048;15.390;2023-06-04T09:17:48;97710.50;;;23.78;52.74
12759;BME280;20944;47.048;15.390;2023-06-04T09:20:22;97708.41;;;23.59;53.85
12759;BME280;20944;47.048;15.390;2023-06-04T09:22:50;97714.84;;;23.56;55.10
12759;BME280;20944;47.048;15.390;2023-06-04T09:25:20;97716.56;;;23.46;54.34
12759;BME280;20944;47.048;15.390;2023-06-04T09:27:49;97712.28;;;23.32;55.16
12759;BME280;20944;47.048;15.390;2023-06-04T09:30:17;97713.03;;;23.46;55.24
12759;BME280;20944;47.048;15.390;2023-06-04T09:32:45;97717.06;;;23.51;54.35
12759;BME280;20944;47.048;15.390;2023-06-04T09:35:15;97713.44;;;23.63;54.78
12759;BME280;20944;47.048;15.390;2023-06-04T09:37:53;97692.75;;;23.77;54.64
12759;BME280;20944;47.048;15.390;2023-06-04T09:40:23;97706.69;;;24.14;56.69
12759;BME280;20944;47.048;15.390;2023-06-04T09:42:51;97697.25;;;24.31;54.44
12759;BME280;20944;47.048;15.390;2023-06-04T09:45:30;97699.41;;;24.48;53.48
12759;BME280;20944;47.048;15.390;2023-06-04T09:47:59;97703.41;;;24.54;53.19
12759;BME280;20944;47.048;15.390;2023-06-04T09:50:29;97700.59;;;24.55;52.26
12759;BME280;20944;47.048;15.390;2023-06-04T09:52:59;97699.38;;;24.59;53.33
12759;BME280;20944;47.048;15.390;2023-06-04T09:55:29;97673.81;;;24.55;53.76
12759;BME280;20944;47.048;15.390;2023-06-04T09:57:59;97706.78;;;24.88;52.75
12759;BME280;20944;47.048;15.390;2023-06-04T10:00:28;97703.72;;;24.92;51.24
12759;BME280;20944;47.048;15.390;2023-06-04T10:02:59;97704.31;;;24.96;50.10
12759;BME280;20944;47.048;15.390;2023-06-04T10:05:31;97697.31;;;24.84;52.43
12759;BME280;20944;47.048;15.390;2023-06-04T10:08:03;97693.47;;;24.77;54.46
12759;BME280;20944;47.048;15.390;2023-06-04T10:10:34;97693.00;;;24.92;53.74
12759;BME280;20944;47.048;15.390;2023-06-04T10:13:06;97694.97;;;25.11;54.10
12759;BME280;20944;47.048;15.390;2023-06-04T10:15:35;97692.09;;;25.24;53.75
12759;BME280;20944;47.048;15.390;2023-06-04T10:18:04;97682.38;;;25.33;51.84
12759;BME280;20944;47.048;15.390;2023-06-04T10:20:33;97690.94;;;25.47;49.95
12759;BME280;20944;47.048;15.390;2023-06-04T10:23:05;97683.25;;;25.33;51.27
12759;BME280;20944;47.048;15.390;2023-06-04T10:25:35;97692.38;;;25.21;50.31
12759;BME280;20944;47.048;15.390;2023-06-04T10:28:04;97667.94;;;25.03;53.14
12759;BME280;20944;47.048;15.390;2023-06-04T10:30:32;97686.59;;;25.25;55.87
12759;BME280;20944;47.048;15.390;2023-06-04T10:33:02;97673.56;;;25.42;53.66
12759;BME280;20944;47.048;15.390;2023-06-04T10:35:32;97678.66;;;25.75;53.54
12759;BME280;20944;47.048;15.390;2023-06-04T10:38:09;97683.44;;;25.72;49.56
12759;BME280;20944;47.048;15.390;2023-06-04T10:40:38;97672.69;;;25.41;50.52
12759;BME280;20944;47.048;15.390;2023-06-04T10:43:07;97683.81;;;25.37;51.52
12759;BME280;20944;47.048;15.390;2023-06-04T10:45:36;97684.75;;;24.84;52.86
12759;BME280;20944;47.048;15.390;2023-06-04T10:48:06;97682.34;;;24.49;53.55
12759;BME280;20944;47.048;15.390;2023-06-04T10:50:47;97681.00;;;24.11;52.86
12759;BME280;20944;47.048;15.390;2023-06-04T10:53:18;97666.13;;;23.64;54.23
12759;BME280;20944;47.048;15.390;2023-06-04T10:55:47;97683.47;;;23.47;55.25
12759;BME280;20944;47.048;15.390;2023-06-04T10:58:16;97655.25;;;23.21;57.67
12759;BME280;20944;47.048;15.390;2023-06-04T11:00:45;97673.50;;;23.27;56.61
12759;BME280;20944;47.048;15.390;2023-06-04T11:03:16;97670.56;;;23.30;56.64
12759;BME280;20944;47.048;15.390;2023-06-04T11:05:46;97675.94;;;23.52;57.03
12759;BME280;20944;47.048;15.390;2023-06-04T11:08:14;97669.38;;;23.79;56.62
12759;BME280;20944;47.048;15.390;2023-06-04T11:10:55;97658.84;;;24.09;56.74
12759;BME280;20944;47.048;15.390;2023-06-04T11:13:24;97667.56;;;24.34;54.66
12759;BME280;20944;47.048;15.390;2023-06-04T11:15:53;97656.53;;;24.48;55.27
12759;BME280;20944;47.048;15.390;2023-06-04T11:18:23;97664.06;;;24.75;52.87
12759;BME280;20944;47.048;15.390;2023-06-04T11:20:59;97653.16;;;24.88;53.11
12759;BME280;20944;47.048;15.390;2023-06-04T11:23:28;97659.66;;;25.06;53.37
12759;BME280;20944;47.048;15.390;2023-06-04T11:25:58;97660.50;;;25.27;53.62
12759;BME280;20944;47.048;15.390;2023-06-04T11:28:26;97654.91;;;25.40;53.10
12759;BME280;20944;47.048;15.390;2023-06-04T11:30:58;97655.78;;;25.50;52.33
12759;BME280;20944;47.048;15.390;2023-06-04T11:33:29;97660.06;;;25.63;52.94
12759;BME280;20944;47.048;15.390;2023-06-04T11:35:58;97664.72;;;25.61;52.35
12759;BME280;20944;47.048;15.390;2023-06-04T11:38:26;97625.66;;;25.37;52.26
12759;BME280;20944;47.048;15.390;2023-06-04T11:40:58;97672.84;;;25.40;51.47
12759;BME280;20944;47.048;15.390;2023-06-04T11:43:27;97664.41;;;25.23;51.35
12759;BME280;20944;47.048;15.390;2023-06-04T11:45:56;97667.56;;;25.28;52.03
12759;BME280;20944;47.048;15.390;2023-06-04T11:48:25;97605.28;;;25.04;52.97
12759;BME280;20944;47.048;15.390;2023-06-04T11:50:54;97658.44;;;25.41;51.75
12759;BME280;20944;47.048;15.390;2023-06-04T11:53:23;97634.00;;;25.13;52.81
12759;BME280;20944;47.048;15.390;2023-06-04T11:55:52;97652.75;;;25.34;52.90
12759;BME280;20944;47.048;15.390;2023-06-04T11:58:23;97655.16;;;25.37;53.23
12759;BME280;20944;47.048;15.390;2023-06-04T12:00:52;97650.25;;;25.42;54.98
12759;BME280;20944;47.048;15.390;2023-06-04T12:03:34;97593.97;;;25.00;53.39
12759;BME280;20944;47.048;15.390;2023-06-04T12:06:14;97654.16;;;25.28;54.19
12759;BME280;20944;47.048;15.390;2023-06-04T12:08:47;97654.69;;;25.22;54.64
12759;BME280;20944;47.048;15.390;2023-06-04T12:11:27;97652.66;;;25.15;54.09
12759;BME280;20944;47.048;15.390;2023-06-04T12:13:59;97650.47;;;24.88;52.68
12759;BME280;20944;47.048;15.390;2023-06-04T12:16:27;97625.09;;;24.50;53.48
12759;BME280;20944;47.048;15.390;2023-06-04T12:19:06;97644.50;;;24.42;54.36
12759;BME280;20944;47.048;15.390;2023-06-04T12:21:35;97657.06;;;24.31;56.51
12759;BME280;20944;47.048;15.390;2023-06-04T12:24:08;97652.63;;;24.20;55.70
12759;BME280;20944;47.048;15.390;2023-06-04T12:26:37;97647.78;;;24.03;57.63
12759;BME280;20944;47.048;15.390;2023-06-04T12:29:09;97603.22;;;23.58;59.34
12759;BME280;20944;47.048;15.390;2023-06-04T12:31:38;97652.09;;;23.83;59.98
12759;BME280;20944;47.048;15.390;2023-06-04T12:34:07;97652.13;;;23.72;59.71
12759;BME280;20944;47.048;15.390;2023-06-04T12:36:36;97662.47;;;23.65;60.06
12759;BME280;20944;47.048;15.390;2023-06-04T12:39:05;97652.22;;;23.59;60.70
12759;BME280;20944;47.048;15.390;2023-06-04T12:41:34;97653.69;;;23.52;59.47
12759;BME280;20944;47.048;15.390;2023-06-04T12:44:02;97656.50;;;23.39;59.66
12759;BME280;20944;47.048;15.390;2023-06-04T12:46:32;97668.88;;;23.29;61.15
12759;BME280;20944;47.048;15.390;2023-06-04T12:49:00;97669.84;;;23.17;61.86
12759;BME280;20944;47.048;15.390;2023-06-04T12:51:28;97670.09;;;23.13;61.55
12759;BME280;20944;47.048;15.390;2023-06-04T12:53:57;97665.69;;;23.12;62.98
12759;BME280;20944;47.048;15.390;2023-06-04T12:56:26;97672.50;;;23.05;62.26
12759;BME280;20944;47.048;15.390;2023-06-04T12:58:54;97673.44;;;22.93;64.35
12759;BME280;20944;47.048;15.390;2023-06-04T13:01:22;97663.06;;;22.77;67.48